createdAt,value
2023-03-25T00:00:16.913Z,2.50
2023-03-25T00:02:49.620Z,2.50
2023-03-25T00:05:19.006Z,2.40
2023-03-25T00:07:48.737Z,2.40
2023-03-25T00:10:16.209Z,2.40
2023-03-25T00:12:43.101Z,2.40
2023-03-25T00:15:12.052Z,2.40
2023-03-25T00:17:39.390Z,2.40
2023-03-25T00:20:40.899Z,2.40
2023-03-25T00:23:08.406Z,2.40
2023-03-25T00:25:35.610Z,2.40
2023-03-25T00:28:35.907Z,2.40
2023-03-25T00:31:08.140Z,2.40
2023-03-25T00:33:35.505Z,2.40
2023-03-25T00:36:04.564Z,2.40
2023-03-25T00:38:35.268Z,2.40
2023-03-25T00:41:12.823Z,2.40
2023-03-25T00:43:40.947Z,2.40
2023-03-25T00:46:07.885Z,2.40
2023-03-25T00:48:34.810Z,2.40
2023-03-25T00:51:07.463Z,2.40
2023-03-25T00:53:35.331Z,2.40
2023-03-25T00:56:02.755Z,2.40
2023-03-25T00:58:29.877Z,2.40
2023-03-25T01:00:57.692Z,2.40
2023-03-25T01:03:26.035Z,2.30
2023-03-25T01:05:54.809Z,2.30
2023-03-25T01:08:25.805Z,2.30
2023-03-25T01:10:54.486Z,2.40
2023-03-25T01:13:22.243Z,2.40
2023-03-25T01:15:50.864Z,2.30
2023-03-25T01:18:18.112Z,2.30
2023-03-25T01:20:44.946Z,2.30
2023-03-25T01:23:11.792Z,2.30
2023-03-25T01:25:38.809Z,2.30
2023-03-25T01:28:06.205Z,2.30
2023-03-25T01:30:33.145Z,2.30
2023-03-25T01:33:00.075Z,2.30
2023-03-25T01:35:26.957Z,2.30
2023-03-25T01:37:54.704Z,2.30
2023-03-25T01:40:24.174Z,2.30
2023-03-25T01:42:51.925Z,2.30
2023-03-25T01:45:27.782Z,2.30
2023-03-25T01:48:10.461Z,2.30
2023-03-25T01:50:41.042Z,2.20
2023-03-25T01:53:10.211Z,2.30
2023-03-25T01:55:38.290Z,2.20
2023-03-25T01:58:13.954Z,2.20
2023-03-25T02:00:44.213Z,2.20
2023-03-25T02:03:12.696Z,2.20
2023-03-25T02:05:46.664Z,2.20
2023-03-25T02:08:15.856Z,2.30
2023-03-25T02:10:46.392Z,2.30
2023-03-25T02:13:16.100Z,2.20
2023-03-25T02:15:55.387Z,2.30
2023-03-25T02:18:40.199Z,2.30
2023-03-25T02:21:55.485Z,2.30
2023-03-25T02:24:35.232Z,2.20
2023-03-25T02:27:27.939Z,2.20
2023-03-25T02:30:14.962Z,2.20
2023-03-25T02:33:11.841Z,2.20
2023-03-25T02:36:10.240Z,2.20
2023-03-25T02:38:56.064Z,2.20
2023-03-25T02:41:31.122Z,2.20
2023-03-25T02:44:31.474Z,2.20
2023-03-25T02:47:03.031Z,2.20
2023-03-25T02:49:34.003Z,2.20
2023-03-25T02:52:08.390Z,2.20
2023-03-25T02:54:39.424Z,2.20
2023-03-25T02:57:08.321Z,2.20
2023-03-25T02:59:38.450Z,2.20
2023-03-25T03:02:09.263Z,2.20
2023-03-25T03:04:55.081Z,2.20
2023-03-25T03:07:27.864Z,2.30
2023-03-25T03:10:08.042Z,2.20
2023-03-25T03:12:40.851Z,2.20
2023-03-25T03:15:32.417Z,2.20
2023-03-25T03:18:14.882Z,2.30
2023-03-25T03:21:13.802Z,2.20
2023-03-25T03:23:57.676Z,2.20
2023-03-25T03:26:53.339Z,2.20
2023-03-25T03:29:23.049Z,2.30
2023-03-25T03:32:06.428Z,2.20
2023-03-25T03:34:53.821Z,2.20
2023-03-25T03:37:37.495Z,2.30
2023-03-25T03:40:08.007Z,2.30
2023-03-25T03:42:44.937Z,2.20
2023-03-25T03:45:22.712Z,2.20
2023-03-25T03:47:54.239Z,2.10
2023-03-25T03:50:28.089Z,2.10
2023-03-25T03:53:14.030Z,2.10
2023-03-25T03:55:51.787Z,2.10
2023-03-25T03:58:25.471Z,2.10
2023-03-25T04:01:09.884Z,2.20
2023-03-25T04:04:01.071Z,2.10
2023-03-25T04:06:42.222Z,2.10
2023-03-25T04:09:34.861Z,2.00
2023-03-25T04:12:17.840Z,2.10
2023-03-25T04:14:44.893Z,2.10
2023-03-25T04:17:12.685Z,2.10
2023-03-25T04:19:39.747Z,2.00
2023-03-25T04:22:07.049Z,2.00
2023-03-25T04:24:37.670Z,2.00
2023-03-25T04:27:04.943Z,1.90
2023-03-25T04:29:32.582Z,1.80
2023-03-25T04:32:00.503Z,1.80
2023-03-25T04:34:28.202Z,1.80
2023-03-25T04:36:57.287Z,1.70
2023-03-25T04:39:25.717Z,1.80
2023-03-25T04:42:03.563Z,1.80
2023-03-25T04:44:33.557Z,1.80
2023-03-25T04:47:02.782Z,1.90
2023-03-25T04:49:29.871Z,1.90
2023-03-25T04:51:57.071Z,1.90
2023-03-25T04:54:24.728Z,1.90
2023-03-25T04:56:52.438Z,1.90
2023-03-25T04:59:21.105Z,1.90
2023-03-25T05:01:48.443Z,1.90
2023-03-25T05:04:17.282Z,1.90
2023-03-25T05:06:47.157Z,1.80
2023-03-25T05:09:19.733Z,1.80
2023-03-25T05:11:47.018Z,1.80
2023-03-25T05:14:16.436Z,1.80
2023-03-25T05:16:44.019Z,1.80
2023-03-25T05:19:11.160Z,1.80
2023-03-25T05:21:40.822Z,1.80
2023-03-25T05:24:10.296Z,1.80
2023-03-25T05:26:39.781Z,1.90
2023-03-25T05:29:10.520Z,1.90
2023-03-25T05:31:37.369Z,2.00
2023-03-25T05:34:06.753Z,2.00
2023-03-25T05:36:33.684Z,1.90
2023-03-25T05:39:00.515Z,1.90
2023-03-25T05:41:49.082Z,1.80
2023-03-25T05:44:18.909Z,1.80
2023-03-25T05:46:45.693Z,1.80
2023-03-25T05:49:12.641Z,1.80
2023-03-25T05:51:39.449Z,1.80
2023-03-25T05:54:11.265Z,1.90
2023-03-25T05:56:38.767Z,1.90
2023-03-25T05:59:05.913Z,1.90
2023-03-25T06:01:37.499Z,1.90
2023-03-25T06:04:04.696Z,1.90
2023-03-25T06:06:34.142Z,1.90
2023-03-25T06:09:02.349Z,2.00
2023-03-25T06:11:29.595Z,2.00
2023-03-25T06:13:56.870Z,2.10
2023-03-25T06:16:29.823Z,2.10
2023-03-25T06:18:59.776Z,2.10
2023-03-25T06:21:29.009Z,2.20
2023-03-25T06:23:58.537Z,2.20
2023-03-25T06:26:25.463Z,2.20
2023-03-25T06:28:52.556Z,2.30
2023-03-25T06:31:28.373Z,2.40
2023-03-25T06:33:56.355Z,2.40
2023-03-25T06:36:25.555Z,2.50
2023-03-25T06:38:53.480Z,2.50
2023-03-25T06:41:21.776Z,2.50
2023-03-25T06:43:56.586Z,2.50
2023-03-25T06:46:42.347Z,2.60
2023-03-25T06:49:16.152Z,2.50
2023-03-25T06:51:43.347Z,2.50
2023-03-25T06:54:10.137Z,2.50
2023-03-25T06:56:37.479Z,2.50
2023-03-25T06:59:05.271Z,2.60
2023-03-25T07:01:32.105Z,2.60
2023-03-25T07:03:59.037Z,2.60
2023-03-25T07:06:26.332Z,2.60
2023-03-25T07:08:53.196Z,2.60
2023-03-25T07:11:27.149Z,2.70
2023-03-25T07:13:54.292Z,2.80
2023-03-25T07:16:24.217Z,2.80
2023-03-25T07:18:51.572Z,2.90
2023-03-25T07:21:19.199Z,3.00
2023-03-25T07:23:46.199Z,3.10
2023-03-25T07:26:17.002Z,3.20
2023-03-25T07:28:44.543Z,3.20
2023-03-25T07:31:13.953Z,3.30
2023-03-25T07:33:41.149Z,3.30
2023-03-25T07:36:11.254Z,3.40
2023-03-25T07:38:38.439Z,3.40
2023-03-25T07:41:13.162Z,3.40
2023-03-25T07:43:48.820Z,3.40
2023-03-25T07:46:27.508Z,3.40
2023-03-25T07:48:54.652Z,3.40
2023-03-25T07:51:21.552Z,3.40
2023-03-25T07:53:48.833Z,3.40
2023-03-25T07:56:15.968Z,3.50
2023-03-25T07:58:44.355Z,3.50
2023-03-25T08:01:11.300Z,3.50
2023-03-25T08:03:41.344Z,3.50
2023-03-25T08:06:08.802Z,3.50
2023-03-25T08:08:36.450Z,3.60
2023-03-25T08:11:03.493Z,3.70
2023-03-25T08:13:30.841Z,3.80
2023-03-25T08:15:57.960Z,3.80
2023-03-25T08:18:25.789Z,3.90
2023-03-25T08:20:52.817Z,3.90
2023-03-25T08:23:20.524Z,4.00
2023-03-25T08:25:49.693Z,4.00
2023-03-25T08:28:22.493Z,4.00
2023-03-25T08:30:55.165Z,4.10
2023-03-25T08:33:27.465Z,4.10
2023-03-25T08:35:57.715Z,4.10
2023-03-25T08:38:25.516Z,4.30
2023-03-25T08:40:52.646Z,4.30
2023-03-25T08:43:19.477Z,4.30
2023-03-25T08:45:46.414Z,4.40
2023-03-25T08:48:13.387Z,4.50
2023-03-25T08:50:40.536Z,4.50
2023-03-25T08:53:07.478Z,4.60
2023-03-25T08:55:34.370Z,4.60
2023-03-25T08:58:06.329Z,4.60
2023-03-25T09:00:33.864Z,4.60
2023-03-25T09:03:00.963Z,4.60
2023-03-25T09:05:27.958Z,4.60
2023-03-25T09:07:54.928Z,4.60
2023-03-25T09:10:21.936Z,4.60
2023-03-25T09:12:48.863Z,4.60
2023-03-25T09:15:15.698Z,4.60
2023-03-25T09:17:42.946Z,4.60
2023-03-25T09:20:11.598Z,4.60
2023-03-25T09:22:39.466Z,4.50
2023-03-25T09:25:07.810Z,4.60
2023-03-25T09:27:35.578Z,4.50
2023-03-25T09:30:03.611Z,4.50
2023-03-25T09:32:30.741Z,4.50
2023-03-25T09:34:57.579Z,4.50
2023-03-25T09:37:24.585Z,4.50
2023-03-25T09:39:51.522Z,4.50
2023-03-25T09:42:18.548Z,4.50
2023-03-25T09:45:11.958Z,4.60
2023-03-25T09:47:44.997Z,4.80
2023-03-25T09:50:16.130Z,5.00
2023-03-25T09:53:10.254Z,5.10
2023-03-25T09:55:42.114Z,5.20
2023-03-25T09:58:41.986Z,5.40
2023-03-25T10:01:33.255Z,5.50
2023-03-25T10:04:45.627Z,5.60
2023-03-25T10:07:46.493Z,5.60
2023-03-25T10:10:16.152Z,5.50
2023-03-25T10:12:47.824Z,5.40
2023-03-25T10:15:21.614Z,5.30
2023-03-25T10:18:04.266Z,5.30
2023-03-25T10:20:49.801Z,5.20
2023-03-25T10:23:41.337Z,5.10
2023-03-25T10:26:18.234Z,5.00
2023-03-25T10:28:54.429Z,4.90
2023-03-25T10:31:25.433Z,4.80
2023-03-25T10:33:59.461Z,4.70
2023-03-25T10:36:40.708Z,4.50
2023-03-25T10:39:19.610Z,4.50
2023-03-25T10:41:57.840Z,4.20
2023-03-25T10:44:27.197Z,4.10
2023-03-25T10:47:06.164Z,4.00
2023-03-25T10:49:34.892Z,3.90
2023-03-25T10:52:02.576Z,3.90
2023-03-25T10:54:36.899Z,4.00
2023-03-25T10:57:07.955Z,4.00
2023-03-25T10:59:45.352Z,4.00
2023-03-25T11:02:27.916Z,4.00
2023-03-25T11:05:01.548Z,4.10
2023-03-25T11:07:37.476Z,4.00
2023-03-25T11:10:13.664Z,4.00
2023-03-25T11:12:46.614Z,4.00
2023-03-25T11:15:18.742Z,4.00
2023-03-25T11:17:48.046Z,4.00
2023-03-25T11:20:21.776Z,3.90
2023-03-25T11:22:53.321Z,3.90
2023-03-25T11:25:42.110Z,3.90
2023-03-25T11:28:18.791Z,3.90
2023-03-25T11:31:07.851Z,3.80
2023-03-25T11:33:36.941Z,3.80
2023-03-25T11:36:20.630Z,3.90
2023-03-25T11:38:53.308Z,3.80
2023-03-25T11:41:20.474Z,3.70
2023-03-25T11:43:49.225Z,3.50
2023-03-25T11:46:22.492Z,3.50
2023-03-25T11:48:52.583Z,3.40
2023-03-25T11:51:30.128Z,3.40
2023-03-25T11:54:02.418Z,3.40
2023-03-25T11:56:37.803Z,3.40
2023-03-25T11:59:28.545Z,3.50
2023-03-25T12:02:02.960Z,3.40
2023-03-25T12:04:30.360Z,3.50
2023-03-25T12:07:10.226Z,3.50
2023-03-25T12:09:37.426Z,3.50
2023-03-25T12:12:10.222Z,3.60
2023-03-25T12:14:49.942Z,3.50
2023-03-25T12:17:32.516Z,3.50
2023-03-25T12:20:18.330Z,3.40
2023-03-25T12:23:03.520Z,3.30
2023-03-25T12:25:53.834Z,3.30
2023-03-25T12:28:46.503Z,3.30
2023-03-25T12:31:35.300Z,3.40
2023-03-25T12:34:16.882Z,3.40
2023-03-25T12:36:48.325Z,3.40
2023-03-25T12:39:56.362Z,3.40
2023-03-25T12:42:35.074Z,3.50
2023-03-25T12:45:29.993Z,3.50
2023-03-25T12:48:07.010Z,3.50
2023-03-25T12:50:36.838Z,3.60
2023-03-25T12:53:23.381Z,3.50
2023-03-25T12:55:58.686Z,3.30
2023-03-25T12:58:40.045Z,3.30
2023-03-25T13:01:32.213Z,3.20
2023-03-25T13:04:27.751Z,3.30
2023-03-25T13:07:04.272Z,3.30
2023-03-25T13:09:57.420Z,3.30
2023-03-25T13:12:32.078Z,3.30
2023-03-25T13:15:26.874Z,3.30
2023-03-25T13:18:00.161Z,3.30
2023-03-25T13:20:30.763Z,3.30
2023-03-25T13:23:02.197Z,3.30
2023-03-25T13:25:42.965Z,3.40
2023-03-25T13:28:14.278Z,3.30
2023-03-25T13:30:44.582Z,3.10
2023-03-25T13:33:20.965Z,3.10
2023-03-25T13:35:53.833Z,3.00
2023-03-25T13:38:46.731Z,2.90
2023-03-25T13:41:23.700Z,3.00
2023-03-25T13:44:27.815Z,3.10
2023-03-25T13:47:06.541Z,3.10
2023-03-25T13:49:33.331Z,3.10
2023-03-25T13:52:00.331Z,3.20
2023-03-25T13:54:36.585Z,3.30
2023-03-25T13:57:34.300Z,3.30
2023-03-25T14:00:16.354Z,3.50
2023-03-25T14:03:04.370Z,3.50
2023-03-25T14:06:07.877Z,3.60
2023-03-25T14:08:56.032Z,3.50
2023-03-25T14:11:46.423Z,3.50
2023-03-25T14:14:17.638Z,3.60
2023-03-25T14:16:50.214Z,3.50
2023-03-25T14:19:25.910Z,3.40
2023-03-25T14:21:53.522Z,3.20
2023-03-25T14:24:25.349Z,3.20
2023-03-25T14:27:01.682Z,3.10
2023-03-25T14:30:03.178Z,3.10
2023-03-25T14:32:34.302Z,3.00
2023-03-25T14:35:35.250Z,3.00
2023-03-25T14:38:08.552Z,2.90
2023-03-25T14:43:40.322Z,2.80
2023-03-25T14:46:13.368Z,2.80
2023-03-25T14:48:47.837Z,2.80
2023-03-25T14:51:43.327Z,2.80
2023-03-25T14:54:30.407Z,2.80
2023-03-25T14:57:01.851Z,2.80
2023-03-25T14:59:36.954Z,2.70
2023-03-25T15:02:14.129Z,2.70
2023-03-25T15:04:41.974Z,2.60
2023-03-25T15:07:18.867Z,2.60
2023-03-25T15:09:54.023Z,2.50
2023-03-25T15:12:25.610Z,2.50
2023-03-25T15:14:57.065Z,2.50
2023-03-25T15:17:44.704Z,2.50
2023-03-25T15:20:26.561Z,2.40
2023-03-25T15:23:18.218Z,2.20
2023-03-25T15:25:54.847Z,2.20
2023-03-25T15:28:39.833Z,2.20
2023-03-25T15:31:47.359Z,2.10
2023-03-25T15:34:24.313Z,2.20
2023-03-25T15:37:09.010Z,2.20
2023-03-25T15:39:57.971Z,2.30
2023-03-25T15:42:40.703Z,2.30
2023-03-25T15:45:31.804Z,2.30
2023-03-25T15:48:46.737Z,2.30
2023-03-25T15:51:28.758Z,2.30
2023-03-25T15:54:35.460Z,2.20
2023-03-25T15:57:14.335Z,2.20
2023-03-25T15:59:46.170Z,2.10
2023-03-25T16:02:38.574Z,2.00
2023-03-25T16:05:07.685Z,2.10
2023-03-25T16:07:36.072Z,2.10
2023-03-25T16:10:16.811Z,2.00
2023-03-25T16:12:46.877Z,2.10
2023-03-25T16:15:16.546Z,2.10
2023-03-25T16:17:46.077Z,2.00
2023-03-25T16:20:18.293Z,2.10
2023-03-25T16:22:50.558Z,2.10
2023-03-25T16:25:27.032Z,2.20
2023-03-25T16:27:58.020Z,2.10
2023-03-25T16:30:43.186Z,2.10
2023-03-25T16:33:12.908Z,2.00
2023-03-25T16:36:15.807Z,2.00
2023-03-25T16:38:43.594Z,2.00
2023-03-25T16:41:15.189Z,2.00
2023-03-25T16:43:43.099Z,1.90
2023-03-25T16:46:12.232Z,1.90
2023-03-25T16:48:49.020Z,1.90
2023-03-25T16:51:21.179Z,1.90
2023-03-25T16:53:53.813Z,1.80
2023-03-25T16:56:23.926Z,1.80
2023-03-25T16:59:01.777Z,1.80
2023-03-25T17:01:33.707Z,1.70
2023-03-25T17:04:39.330Z,1.70
2023-03-25T17:07:27.921Z,1.60
2023-03-25T17:09:58.171Z,1.70
2023-03-25T17:12:27.375Z,1.70
2023-03-25T17:15:07.150Z,1.60
2023-03-25T17:17:46.500Z,1.60
2023-03-25T17:20:24.878Z,1.60
2023-03-25T17:23:04.428Z,1.60
2023-03-25T17:25:35.936Z,1.70
2023-03-25T17:28:31.066Z,1.70
2023-03-25T17:30:58.449Z,1.70
2023-03-25T17:33:39.837Z,1.70
2023-03-25T17:36:12.814Z,1.70
2023-03-25T17:38:45.056Z,1.70
2023-03-25T17:41:14.377Z,1.70
2023-03-25T17:43:44.718Z,1.70
2023-03-25T17:46:13.421Z,1.70
2023-03-25T17:48:40.863Z,1.70
2023-03-25T17:51:07.656Z,1.60
2023-03-25T17:53:34.510Z,1.60
2023-03-25T17:56:03.666Z,1.50
2023-03-25T17:58:30.651Z,1.60
2023-03-25T18:00:58.955Z,1.60
2023-03-25T18:03:28.232Z,1.50
2023-03-25T18:05:55.278Z,1.50
2023-03-25T18:08:23.943Z,1.50
2023-03-25T18:10:55.625Z,1.50
2023-03-25T18:13:24.062Z,1.50
2023-03-25T18:15:52.747Z,1.50
2023-03-25T18:18:25.607Z,1.40
2023-03-25T18:20:56.010Z,1.40
2023-03-25T18:23:23.661Z,1.30
2023-03-25T18:25:50.657Z,1.30
2023-03-25T18:28:17.563Z,1.30
2023-03-25T18:30:49.053Z,1.20
2023-03-25T18:33:16.613Z,1.20
2023-03-25T18:35:44.685Z,1.20
2023-03-25T18:38:15.689Z,1.10
2023-03-25T18:40:42.542Z,1.10
2023-03-25T18:43:09.336Z,1.10
2023-03-25T18:45:37.447Z,1.10
2023-03-25T18:48:05.011Z,1.10
2023-03-25T18:50:38.385Z,1.10
2023-03-25T18:53:06.451Z,1.10
2023-03-25T18:55:33.756Z,1.20
2023-03-25T18:58:00.784Z,1.20
2023-03-25T19:00:37.014Z,1.20
2023-03-25T19:03:04.378Z,1.10
2023-03-25T19:05:32.240Z,1.20
2023-03-25T19:07:59.213Z,1.20
2023-03-25T19:10:29.109Z,1.20
2023-03-25T19:12:56.478Z,1.20
2023-03-25T19:15:27.567Z,1.20
2023-03-25T19:17:58.470Z,1.20
2023-03-25T19:20:29.357Z,1.10
2023-03-25T19:22:56.567Z,1.20
2023-03-25T19:25:23.633Z,1.20
2023-03-25T19:27:50.553Z,1.20
2023-03-25T19:30:22.161Z,1.20
2023-03-25T19:32:51.663Z,1.20
2023-03-25T19:35:19.991Z,1.10
2023-03-25T19:38:07.365Z,1.20
2023-03-25T19:40:40.939Z,1.10
2023-03-25T19:43:07.810Z,1.10
2023-03-25T19:45:34.940Z,1.10
2023-03-25T19:48:01.787Z,1.10
2023-03-25T19:50:32.074Z,1.10
2023-03-25T19:53:01.004Z,1.00
2023-03-25T19:55:28.523Z,1.10
2023-03-25T19:57:55.744Z,1.10
2023-03-25T20:00:26.496Z,1.10
2023-03-25T20:02:59.011Z,1.10
2023-03-25T20:05:26.659Z,1.10
2023-03-25T20:07:54.903Z,1.10
2023-03-25T20:10:24.601Z,1.10
2023-03-25T20:12:51.760Z,1.10
2023-03-25T20:15:21.225Z,1.10
2023-03-25T20:17:49.498Z,1.00
2023-03-25T20:20:16.908Z,1.00
2023-03-25T20:22:44.396Z,1.00
2023-03-25T20:25:13.593Z,0.90
2023-03-25T20:27:41.994Z,0.90
2023-03-25T20:30:14.201Z,0.90
2023-03-25T20:32:42.717Z,0.90
2023-03-25T20:35:13.456Z,0.90
2023-03-25T20:37:45.686Z,0.90
2023-03-25T20:40:15.801Z,0.90
2023-03-25T20:42:44.448Z,0.90
2023-03-25T20:45:14.042Z,0.80
2023-03-25T20:47:41.738Z,0.80
2023-03-25T20:50:11.490Z,0.80
2023-03-25T20:52:38.497Z,0.80
2023-03-25T20:55:06.170Z,0.80
2023-03-25T20:57:33.476Z,0.80
2023-03-25T21:00:00.368Z,0.80
2023-03-25T21:02:27.993Z,0.80
2023-03-25T21:04:56.990Z,0.80
2023-03-25T21:07:27.953Z,0.80
2023-03-25T21:09:55.476Z,0.80
2023-03-25T21:12:29.741Z,0.80
2023-03-25T21:15:00.065Z,0.80
2023-03-25T21:17:27.922Z,0.80
2023-03-25T21:19:55.041Z,0.70
2023-03-25T21:22:22.027Z,0.80
2023-03-25T21:24:49.039Z,0.80
2023-03-25T21:27:17.698Z,0.80
2023-03-25T21:29:46.161Z,0.70
2023-03-25T21:32:13.915Z,0.70
2023-03-25T21:34:41.120Z,0.70
2023-03-25T21:37:08.609Z,0.70
2023-03-25T21:39:35.553Z,0.70
2023-03-25T21:42:10.137Z,0.70
2023-03-25T21:44:38.502Z,0.70
2023-03-25T21:47:08.643Z,0.70
2023-03-25T21:49:35.499Z,0.70
2023-03-25T21:52:02.566Z,0.70
2023-03-25T21:54:30.474Z,0.70
2023-03-25T21:56:57.359Z,0.60
2023-03-25T21:59:24.225Z,0.70
2023-03-25T22:01:52.834Z,0.60
2023-03-25T22:04:19.855Z,0.60
2023-03-25T22:06:47.041Z,0.50
2023-03-25T22:09:13.902Z,0.50
2023-03-25T22:11:40.925Z,0.50
2023-03-25T22:14:10.157Z,0.50
2023-03-25T22:16:37.154Z,0.60
2023-03-25T22:19:04.190Z,0.50
2023-03-25T22:21:37.147Z,0.50
2023-03-25T22:24:05.841Z,0.50
2023-03-25T22:26:33.650Z,0.40
2023-03-25T22:29:03.377Z,0.30
2023-03-25T22:31:32.107Z,0.20
2023-03-25T22:34:11.146Z,0.10
2023-03-25T22:36:41.289Z,0.10
2023-03-25T22:39:09.687Z,0.00
2023-03-25T22:41:36.616Z,0.00
2023-03-25T22:44:03.652Z,0.00
2023-03-25T22:46:32.166Z,-0.10
2023-03-25T22:48:59.621Z,-0.10
2023-03-25T22:51:27.388Z,-0.10
2023-03-25T22:53:54.228Z,-0.20
2023-03-25T22:56:23.493Z,-0.30
2023-03-25T22:58:53.852Z,-0.30
2023-03-25T23:01:26.001Z,-0.40
2023-03-25T23:03:55.936Z,-0.40
2023-03-25T23:06:23.327Z,-0.40
2023-03-25T23:08:50.470Z,-0.40
2023-03-25T23:11:20.922Z,-0.50
2023-03-25T23:13:51.750Z,-0.40
2023-03-25T23:16:22.476Z,-0.40
2023-03-25T23:18:49.867Z,-0.40
2023-03-25T23:21:20.186Z,-0.40
2023-03-25T23:23:53.319Z,-0.50
2023-03-25T23:26:29.983Z,-0.50
2023-03-25T23:29:00.558Z,-0.50
2023-03-25T23:31:33.958Z,-0.60
2023-03-25T23:34:04.531Z,-0.60
2023-03-25T23:36:34.447Z,-0.60
2023-03-25T23:39:02.121Z,-0.60
2023-03-25T23:41:29.598Z,-0.60
2023-03-25T23:43:57.344Z,-0.60
2023-03-25T23:46:25.518Z,-0.60
2023-03-25T23:48:54.914Z,-0.70
2023-03-25T23:51:24.408Z,-0.70
2023-03-25T23:53:52.352Z,-0.70
2023-03-25T23:56:21.717Z,-0.70
2023-03-25T23:58:49.117Z,-0.70
